sensor_id;sensor_type;location;lat;lon;timestamp;pressure;altitude;pressure_sealevel;temperature;humidity
64078;BME280;51039;49.696;10.808;2023-11-21T00:01:53;97723.75;;;7.04;100.00
64078;BME280;51039;49.696;10.808;2023-11-21T00:04:19;97718.50;;;7.04;100.00
64078;BME280;51039;49.696;10.808;2023-11-21T00:06:45;97723.38;;;7.07;100.00
64078;BME280;51039;49.696;10.808;2023-11-21T00:09:12;97720.31;;;7.03;100.00
64078;BME280;51039;49.696;10.808;2023-11-21T00:11:40;97719.28;;;6.98;100.00
64078;BME280;51039;49.696;10.808;2023-11-21T00:14:05;97727.00;;;6.99;100.00
64078;BME280;51039;49.696;10.808;2023-11-21T00:16:31;97726.38;;;6.97;100.00
64078;BME280;51039;49.696;10.808;2023-11-21T00:18:56;97729.44;;;7.01;100.00
64078;BME280;51039;49.696;10.808;2023-11-21T00:21:21;97723.94;;;6.96;100.00
64078;BME280;51039;49.696;10.808;2023-11-21T00:23:47;97728.41;;;6.95;100.00
64078;BME280;51039;49.696;10.808;2023-11-21T00:26:13;97725.16;;;6.93;100.00
64078;BME280;51039;49.696;10.808;2023-11-21T00:28:39;97729.38;;;6.94;100.00
64078;BME280;51039;49.696;10.808;2023-11-21T00:31:05;97725.75;;;6.95;100.00
64078;BME280;51039;49.696;10.808;2023-11-21T00:33:30;97724.13;;;6.94;100.00
64078;BME280;51039;49.696;10.808;2023-11-21T00:35:55;97727.63;;;7.01;100.00
64078;BME280;51039;49.696;10.808;2023-11-21T00:38:21;97727.63;;;7.01;100.00
64078;BME280;51039;49.696;10.808;2023-11-21T00:40:47;97731.84;;;7.02;100.00
64078;BME280;51039;49.696;10.808;2023-11-21T00:43:12;97729.66;;;7.06;100.00
64078;BME280;51039;49.696;10.808;2023-11-21T00:45:38;97727.84;;;7.06;100.00
64078;BME280;51039;49.696;10.808;2023-11-21T00:48:05;97723.75;;;7.04;100.00
64078;BME280;51039;49.696;10.808;2023-11-21T00:50:30;97732.69;;;7.03;100.00
64078;BME280;51039;49.696;10.808;2023-11-21T00:52:56;97735.88;;;6.98;100.00
64078;BME280;51039;49.696;10.808;2023-11-21T00:55:21;97737.09;;;6.96;100.00
64078;BME280;51039;49.696;10.808;2023-11-21T00:57:47;97735.50;;;7.01;100.00
64078;BME280;51039;49.696;10.808;2023-11-21T01:00:13;97729.66;;;7.06;100.00
64078;BME280;51039;49.696;10.808;2023-11-21T01:02:41;97735.56;;;7.15;100.00
64078;BME280;51039;49.696;10.808;2023-11-21T01:05:08;97742.06;;;7.12;100.00
64078;BME280;51039;49.696;10.808;2023-11-21T01:07:34;97741.63;;;7.08;100.00
64078;BME280;51039;49.696;10.808;2023-11-21T01:10:01;97740.00;;;7.07;100.00
64078;BME280;51039;49.696;10.808;2023-11-21T01:12:27;97742.88;;;7.13;100.00
64078;BME280;51039;49.696;10.808;2023-11-21T01:14:52;97741.03;;;7.13;100.00
64078;BME280;51039;49.696;10.808;2023-11-21T01:17:18;97740.41;;;7.11;100.00
64078;BME280;51039;49.696;10.808;2023-11-21T01:19:44;97738.59;;;7.12;100.00
64078;BME280;51039;49.696;10.808;2023-11-21T01:22:10;97737.97;;;7.10;100.00
64078;BME280;51039;49.696;10.808;2023-11-21T01:24:36;97737.00;;;7.17;100.00
64078;BME280;51039;49.696;10.808;2023-11-21T01:27:02;97735.38;;;7.16;100.00
64078;BME280;51039;49.696;10.808;2023-11-21T01:29:29;97740.06;;;7.21;100.00
64078;BME280;51039;49.696;10.808;2023-11-21T01:31:55;97730.53;;;7.20;100.00
64078;BME280;51039;49.696;10.808;2023-11-21T01:34:22;97729.50;;;7.21;100.00
64078;BME280;51039;49.696;10.808;2023-11-21T01:36:48;97734.41;;;7.24;100.00
64078;BME280;51039;49.696;10.808;2023-11-21T01:39:14;97726.69;;;7.22;100.00
64078;BME280;51039;49.696;10.808;2023-11-21T01:41:40;97729.75;;;7.26;100.00
64078;BME280;51039;49.696;10.808;2023-11-21T01:44:09;97735.63;;;7.28;100.00
64078;BME280;51039;49.696;10.808;2023-11-21T01:46:35;97730.38;;;7.28;100.00
64078;BME280;51039;49.696;10.808;2023-11-21T01:49:01;97734.19;;;7.25;100.00
64078;BME280;51039;49.696;10.808;2023-11-21T01:51:26;97730.75;;;7.25;100.00
64078;BME280;51039;49.696;10.808;2023-11-21T01:53:52;97728.31;;;7.23;100.00
64078;BME280;51039;49.696;10.808;2023-11-21T01:56:17;97729.75;;;7.26;100.00
64078;BME280;51039;49.696;10.808;2023-11-21T01:58:43;97734.00;;;7.27;100.00
64078;BME280;51039;49.696;10.808;2023-11-21T02:01:08;97731.34;;;7.27;100.00
64078;BME280;51039;49.696;10.808;2023-11-21T02:03:35;97729.50;;;7.21;100.00
64078;BME280;51039;49.696;10.808;2023-11-21T02:06:01;97733.78;;;7.22;100.00
64078;BME280;51039;49.696;10.808;2023-11-21T02:08:26;97739.66;;;7.24;100.00
64078;BME280;51039;49.696;10.808;2023-11-21T02:10:52;97735.59;;;7.21;100.00
64078;BME280;51039;49.696;10.808;2023-11-21T02:13:17;97721.19;;;7.17;100.00
64078;BME280;51039;49.696;10.808;2023-11-21T02:15:44;97730.94;;;7.17;100.00
64078;BME280;51039;49.696;10.808;2023-11-21T02:18:10;97727.91;;;7.20;100.00
64078;BME280;51039;49.696;10.808;2023-11-21T02:20:36;97730.31;;;7.21;100.00
64078;BME280;51039;49.696;10.808;2023-11-21T02:23:03;97725.66;;;7.23;100.00
64078;BME280;51039;49.696;10.808;2023-11-21T02:25:30;97730.13;;;7.23;100.00
64078;BME280;51039;49.696;10.808;2023-11-21T02:27:57;97728.31;;;7.23;100.00
64078;BME280;51039;49.696;10.808;2023-11-21T02:30:25;97727.50;;;7.23;100.00
64078;BME280;51039;49.696;10.808;2023-11-21T02:32:56;97739.44;;;7.19;100.00
64078;BME280;51039;49.696;10.808;2023-11-21T02:35:22;97729.28;;;7.16;100.00
64078;BME280;51039;49.696;10.808;2023-11-21T02:37:48;97731.72;;;7.17;100.00
64078;BME280;51039;49.696;10.808;2023-11-21T02:40:14;97730.75;;;7.25;100.00
64078;BME280;51039;49.696;10.808;2023-11-21T02:42:43;97732.56;;;7.24;100.00
64078;BME280;51039;49.696;10.808;2023-11-21T02:45:09;97724.44;;;7.19;100.00
64078;BME280;51039;49.696;10.808;2023-11-21T02:47:38;97725.66;;;7.17;100.00
64078;BME280;51039;49.696;10.808;2023-11-21T02:50:04;97731.72;;;7.11;100.00
64078;BME280;51039;49.696;10.808;2023-11-21T02:52:31;97728.66;;;7.07;100.00
64078;BME280;51039;49.696;10.808;2023-11-21T02:54:58;97723.19;;;7.08;100.00
64078;BME280;51039;49.696;10.808;2023-11-21T02:57:23;97725.84;;;7.08;100.00
64078;BME280;51039;49.696;10.808;2023-11-21T02:59:49;97729.88;;;7.04;100.00
64078;BME280;51039;49.696;10.808;2023-11-21T03:02:16;97724.19;;;7.07;100.00
64078;BME280;51039;49.696;10.808;2023-11-21T03:04:42;97726.81;;;7.07;100.00
64078;BME280;51039;49.696;10.808;2023-11-21T03:07:08;97726.44;;;7.11;100.00
64078;BME280;51039;49.696;10.808;2023-11-21T03:09:34;97722.78;;;7.12;100.00
64078;BME280;51039;49.696;10.808;2023-11-21T03:12:00;97724.44;;;7.13;100.00
64078;BME280;51039;49.696;10.808;2023-11-21T03:14:25;97718.53;;;7.11;100.00
64078;BME280;51039;49.696;10.808;2023-11-21T03:16:50;97718.13;;;7.14;100.00
64078;BME280;51039;49.696;10.808;2023-11-21T03:19:16;97719.16;;;7.13;100.00
64078;BME280;51039;49.696;10.808;2023-11-21T03:21:42;97722.41;;;7.15;100.00
64078;BME280;51039;49.696;10.808;2023-11-21T03:24:07;97719.16;;;7.13;100.00
64078;BME280;51039;49.696;10.808;2023-11-21T03:26:33;97727.06;;;7.13;100.00
64078;BME280;51039;49.696;10.808;2023-11-21T03:28:59;97728.28;;;7.17;100.00
64078;BME280;51039;49.696;10.808;2023-11-21T03:31:24;97725.84;;;7.15;100.00
64078;BME280;51039;49.696;10.808;2023-11-21T03:33:49;97730.53;;;7.20;100.00
64078;BME280;51039;49.696;10.808;2023-11-21T03:36:15;97724.88;;;7.23;100.00
64078;BME280;51039;49.696;10.808;2023-11-21T03:38:40;97726.94;;;7.27;100.00
64078;BME280;51039;49.696;10.808;2023-11-21T03:41:06;97730.38;;;7.28;100.00
64078;BME280;51039;49.696;10.808;2023-11-21T03:43:35;97729.56;;;7.27;100.00
64078;BME280;51039;49.696;10.808;2023-11-21T03:46:01;97733.56;;;7.23;100.00
64078;BME280;51039;49.696;10.808;2023-11-21T03:48:26;97732.19;;;7.27;100.00
64078;BME280;51039;49.696;10.808;2023-11-21T03:50:52;97724.28;;;7.27;100.00
64078;BME280;51039;49.696;10.808;2023-11-21T03:53:17;97720.81;;;7.27;100.00
64078;BME280;51039;49.696;10.808;2023-11-21T03:55:42;97725.47;;;7.25;100.00
64078;BME280;51039;49.696;10.808;2023-11-21T03:58:08;97718.38;;;7.19;100.00
64078;BME280;51039;49.696;10.808;2023-11-21T04:00:33;97724.25;;;7.21;100.00
64078;BME280;51039;49.696;10.808;2023-11-21T04:02:58;97726.06;;;7.20;100.00
64078;BME280;51039;49.696;10.808;2023-11-21T04:05:24;97728.91;;;7.19;100.00
64078;BME280;51039;49.696;10.808;2023-11-21T04:07:49;97726.69;;;7.22;100.00
64078;BME280;51039;49.696;10.808;2023-11-21T04:10:16;97734.41;;;7.24;100.00
64078;BME280;51039;49.696;10.808;2023-11-21T04:12:41;97735.03;;;7.26;100.00
64078;BME280;51039;49.696;10.808;2023-11-21T04:15:07;97747.34;;;7.25;100.00
64078;BME280;51039;49.696;10.808;2023-11-21T04:17:34;97739.06;;;7.22;100.00
64078;BME280;51039;49.696;10.808;2023-11-21T04:20:00;97747.75;;;7.22;100.00
64078;BME280;51039;49.696;10.808;2023-11-21T04:22:25;97741.69;;;7.22;100.00
64078;BME280;51039;49.696;10.808;2023-11-21T04:24:51;97745.94;;;7.23;100.00
64078;BME280;51039;49.696;10.808;2023-11-21T04:27:16;97758.50;;;7.21;100.00
64078;BME280;51039;49.696;10.808;2023-11-21T04:29:43;97755.63;;;7.16;100.00
64078;BME280;51039;49.696;10.808;2023-11-21T04:32:09;97759.28;;;7.15;100.00
64078;BME280;51039;49.696;10.808;2023-11-21T04:34:34;97751.38;;;7.15;100.00
64078;BME280;51039;49.696;10.808;2023-11-21T04:37:00;97758.06;;;7.17;100.00
64078;BME280;51039;49.696;10.808;2023-11-21T04:39:26;97755.25;;;7.19;100.00
64078;BME280;51039;49.696;10.808;2023-11-21T04:41:51;97754.25;;;7.20;100.00
64078;BME280;51039;49.696;10.808;2023-11-21T04:44:17;97748.56;;;7.23;100.00
64078;BME280;51039;49.696;10.808;2023-11-21T04:46:42;97745.13;;;7.22;100.00
64078;BME280;51039;49.696;10.808;2023-11-21T04:49:07;97744.09;;;7.23;100.00
64078;BME280;51039;49.696;10.808;2023-11-21T04:51:33;97751.81;;;7.25;100.00
64078;BME280;51039;49.696;10.808;2023-11-21T04:53:58;97752.84;;;7.24;100.00
64078;BME280;51039;49.696;10.808;2023-11-21T04:56:24;97753.84;;;7.23;100.00
64078;BME280;51039;49.696;10.808;2023-11-21T04:58:49;97756.03;;;7.19;100.00
64078;BME280;51039;49.696;10.808;2023-11-21T05:01:15;97761.50;;;7.18;100.00
64078;BME280;51039;49.696;10.808;2023-11-21T05:03:40;97759.91;;;7.17;100.00
64078;BME280;51039;49.696;10.808;2023-11-21T05:06:06;97758.25;;;7.16;100.00
64078;BME280;51039;49.696;10.808;2023-11-21T05:08:34;97763.94;;;7.13;100.00
64078;BME280;51039;49.696;10.808;2023-11-21T05:11:02;97755.41;;;7.11;100.00
64078;BME280;51039;49.696;10.808;2023-11-21T05:13:27;97761.69;;;7.10;100.00
64078;BME280;51039;49.696;10.808;2023-11-21T05:15:56;97765.53;;;7.07;100.00
64078;BME280;51039;49.696;10.808;2023-11-21T05:18:24;97754.94;;;7.00;100.00
64078;BME280;51039;49.696;10.808;2023-11-21T05:20:54;97756.56;;;7.01;100.00
64078;BME280;51039;49.696;10.808;2023-11-21T05:23:20;97768.09;;;7.00;100.00
64078;BME280;51039;49.696;10.808;2023-11-21T05:25:46;97774.41;;;6.99;100.00
64078;BME280;51039;49.696;10.808;2023-11-21T05:28:11;97778.63;;;7.00;100.00
64078;BME280;51039;49.696;10.808;2023-11-21T05:30:37;97783.28;;;6.98;100.00
64078;BME280;51039;49.696;10.808;2023-11-21T05:33:04;97775.19;;;7.00;100.00
64078;BME280;51039;49.696;10.808;2023-11-21T05:35:30;97784.94;;;6.99;100.00
64078;BME280;51039;49.696;10.808;2023-11-21T05:37:56;97782.84;;;6.95;100.00
64078;BME280;51039;49.696;10.808;2023-11-21T05:40:21;97789.34;;;6.92;100.00
64078;BME280;51039;49.696;10.808;2023-11-21T05:42:47;97788.00;;;7.03;100.00
64078;BME280;51039;49.696;10.808;2023-11-21T05:45:13;97782.09;;;7.01;100.00
64078;BME280;51039;49.696;10.808;2023-11-21T05:47:39;97781.50;;;6.99;100.00
64078;BME280;51039;49.696;10.808;2023-11-21T05:50:06;97794.03;;;6.97;100.00
64078;BME280;51039;49.696;10.808;2023-11-21T05:52:37;97796.41;;;6.92;100.00
64078;BME280;51039;49.696;10.808;2023-11-21T05:55:04;97794.22;;;6.95;100.00
64078;BME280;51039;49.696;10.808;2023-11-21T05:57:32;97791.97;;;6.92;100.00
64078;BME280;51039;49.696;10.808;2023-11-21T06:00:02;97796.66;;;6.97;100.00
64078;BME280;51039;49.696;10.808;2023-11-21T06:02:35;97789.38;;;6.99;100.00
64078;BME280;51039;49.696;10.808;2023-11-21T06:05:01;97793.81;;;6.98;100.00
64078;BME280;51039;49.696;10.808;2023-11-21T06:07:26;97800.72;;;6.99;100.00
64078;BME280;51039;49.696;10.808;2023-11-21T06:09:51;97799.69;;;7.00;100.00
64078;BME280;51039;49.696;10.808;2023-11-21T06:12:17;97800.31;;;7.02;100.00
64078;BME280;51039;49.696;10.808;2023-11-21T06:14:42;97809.44;;;7.00;100.00
64078;BME280;51039;49.696;10.808;2023-11-21T06:17:07;97822.59;;;7.00;100.00
64078;BME280;51039;49.696;10.808;2023-11-21T06:19:34;97818.97;;;7.01;100.00
64078;BME280;51039;49.696;10.808;2023-11-21T06:21:59;97829.09;;;7.04;100.00
64078;BME280;51039;49.696;10.808;2023-11-21T06:24:26;97828.09;;;7.05;100.00
64078;BME280;51039;49.696;10.808;2023-11-21T06:26:51;97834.78;;;7.07;100.00
64078;BME280;51039;49.696;10.808;2023-11-21T06:29:17;97830.16;;;7.10;100.00
64078;BME280;51039;49.696;10.808;2023-11-21T06:31:42;97833.00;;;7.50;100.00
64078;BME280;51039;49.696;10.808;2023-11-21T06:34:08;97826.16;;;7.62;100.00
64078;BME280;51039;49.696;10.808;2023-11-21T06:36:34;97832.25;;;7.69;100.00
64078;BME280;51039;49.696;10.808;2023-11-21T06:39:01;97834.91;;;7.69;100.00
64078;BME280;51039;49.696;10.808;2023-11-21T06:41:26;97848.00;;;7.49;100.00
64078;BME280;51039;49.696;10.808;2023-11-21T06:43:51;97844.28;;;7.37;100.00
64078;BME280;51039;49.696;10.808;2023-11-21T06:46:18;97852.16;;;7.30;100.00
64078;BME280;51039;49.696;10.808;2023-11-21T06:48:44;97853.16;;;7.29;100.00
64078;BME280;51039;49.696;10.808;2023-11-21T06:51:10;97849.53;;;7.30;100.00
64078;BME280;51039;49.696;10.808;2023-11-21T06:53:36;97851.13;;;7.31;100.00
64078;BME280;51039;49.696;10.808;2023-11-21T06:56:02;97854.59;;;7.32;100.00
64078;BME280;51039;49.696;10.808;2023-11-21T06:58:27;97865.25;;;7.17;100.00
64078;BME280;51039;49.696;10.808;2023-11-21T07:00:53;97868.69;;;7.17;100.00
64078;BME280;51039;49.696;10.808;2023-11-21T07:03:18;97866.31;;;7.22;100.00
64078;BME280;51039;49.696;10.808;2023-11-21T07:05:44;97873.84;;;7.32;100.00
64078;BME280;51039;49.696;10.808;2023-11-21T07:08:09;97876.13;;;7.35;100.00
64078;BME280;51039;49.696;10.808;2023-11-21T07:10:35;97878.78;;;7.42;100.00
64078;BME280;51039;49.696;10.808;2023-11-21T07:13:03;97882.03;;;7.44;100.00
64078;BME280;51039;49.696;10.808;2023-11-21T07:15:28;97887.28;;;7.44;100.00
64078;BME280;51039;49.696;10.808;2023-11-21T07:17:53;97892.47;;;7.31;100.00
64078;BME280;51039;49.696;10.808;2023-11-21T07:20:19;97896.53;;;7.33;100.00
64078;BME280;51039;49.696;10.808;2023-11-21T07:22:44;97894.78;;;7.40;100.00
64078;BME280;51039;49.696;10.808;2023-11-21T07:25:10;97903.91;;;7.44;100.00
64078;BME280;51039;49.696;10.808;2023-11-21T07:27:37;97900.53;;;7.51;100.00
64078;BME280;51039;49.696;10.808;2023-11-21T07:30:02;97900.72;;;7.49;100.00
64078;BME280;51039;49.696;10.808;2023-11-21T07:32:30;97909.84;;;7.53;100.00
64078;BME280;51039;49.696;10.808;2023-11-21T07:34:56;97913.69;;;7.51;100.00
64078;BME280;51039;49.696;10.808;2023-11-21T07:37:23;97914.31;;;7.53;100.00
64078;BME280;51039;49.696;10.808;2023-11-21T07:39:48;97907.66;;;7.57;100.00
64078;BME280;51039;49.696;10.808;2023-11-21T07:42:14;97915.16;;;7.60;100.00
64078;BME280;51039;49.696;10.808;2023-11-21T07:44:39;97912.72;;;7.58;100.00
64078;BME280;51039;49.696;10.808;2023-11-21T07:47:04;97916.00;;;7.60;100.00
64078;BME280;51039;49.696;10.808;2023-11-21T07:49:30;97916.38;;;7.64;100.00
64078;BME280;51039;49.696;10.808;2023-11-21T07:51:55;97909.94;;;7.66;100.00
64078;BME280;51039;49.696;10.808;2023-11-21T07:54:21;97924.94;;;7.66;100.00
64078;BME280;51039;49.696;10.808;2023-11-21T07:56:46;97919.66;;;7.66;100.00
64078;BME280;51039;49.696;10.808;2023-11-21T07:59:11;97924.94;;;7.66;100.00
64078;BME280;51039;49.696;10.808;2023-11-21T08:01:37;97926.94;;;7.64;100.00
64078;BME280;51039;49.696;10.808;2023-11-21T08:04:03;97928.56;;;7.65;100.00
64078;BME280;51039;49.696;10.808;2023-11-21T08:06:29;97924.53;;;7.69;100.00
64078;BME280;51039;49.696;10.808;2023-11-21T08:08:55;97921.53;;;7.72;100.00
64078;BME280;51039;49.696;10.808;2023-11-21T08:11:21;97929.63;;;7.77;100.00
64078;BME280;51039;49.696;10.808;2023-11-21T08:13:47;97928.66;;;7.85;100.00
64078;BME280;51039;49.696;10.808;2023-11-21T08:16:12;97927.44;;;7.81;100.00
64078;BME280;51039;49.696;10.808;2023-11-21T08:18:38;97928.72;;;7.98;100.00
64078;BME280;51039;49.696;10.808;2023-11-21T08:21:05;97933.47;;;8.16;100.00
64078;BME280;51039;49.696;10.808;2023-11-21T08:23:30;97934.75;;;8.34;100.00
64078;BME280;51039;49.696;10.808;2023-11-21T08:25:56;97926.69;;;8.42;100.00
64078;BME280;51039;49.696;10.808;2023-11-21T08:28:21;97934.94;;;8.39;100.00
64078;BME280;51039;49.696;10.808;2023-11-21T08:30:50;97940.50;;;8.51;100.00
64078;BME280;51039;49.696;10.808;2023-11-21T08:33:16;97940.31;;;8.59;100.00
64078;BME280;51039;49.696;10.808;2023-11-21T08:35:41;97937.50;;;8.60;100.00
64078;BME280;51039;49.696;10.808;2023-11-21T08:38:07;97942.16;;;8.72;100.00
64078;BME280;51039;49.696;10.808;2023-11-21T08:40:34;97941.75;;;8.68;100.00
64078;BME280;51039;49.696;10.808;2023-11-21T08:43:00;97948.06;;;8.87;100.00
64078;BME280;51039;49.696;10.808;2023-11-21T08:45:25;97951.13;;;8.97;100.00
64078;BME280;51039;49.696;10.808;2023-11-21T08:47:51;97948.69;;;8.96;100.00
64078;BME280;51039;49.696;10.808;2023-11-21T08:50:16;97946.69;;;9.04;100.00
64078;BME280;51039;49.696;10.808;2023-11-21T08:52:43;97951.16;;;9.11;100.00
64078;BME280;51039;49.696;10.808;2023-11-21T08:55:09;97950.72;;;9.27;100.00
64078;BME280;51039;49.696;10.808;2023-11-21T08:57:37;97960.50;;;9.27;100.00
64078;BME280;51039;49.696;10.808;2023-11-21T09:00:04;97958.84;;;9.39;100.00
64078;BME280;51039;49.696;10.808;2023-11-21T09:02:40;97962.53;;;9.04;100.00
64078;BME280;51039;49.696;10.808;2023-11-21T09:05:09;97959.25;;;9.02;100.00
64078;BME280;51039;49.696;10.808;2023-11-21T09:07:36;97967.34;;;8.68;100.00
64078;BME280;51039;49.696;10.808;2023-11-21T09:10:05;97974.03;;;8.63;100.00
64078;BME280;51039;49.696;10.808;2023-11-21T09:12:32;97982.38;;;8.60;100.00
64078;BME280;51039;49.696;10.808;2023-11-21T09:15:00;97976.63;;;8.50;100.00
64078;BME280;51039;49.696;10.808;2023-11-21T09:17:29;97976.63;;;8.50;100.00
64078;BME280;51039;49.696;10.808;2023-11-21T09:19:55;97975.47;;;8.66;100.00
64078;BME280;51039;49.696;10.808;2023-11-21T09:22:22;97980.53;;;8.68;100.00
64078;BME280;51039;49.696;10.808;2023-11-21T09:24:49;97982.41;;;8.80;100.00
64078;BME280;51039;49.696;10.808;2023-11-21T09:27:15;97984.06;;;9.08;100.00
64078;BME280;51039;49.696;10.808;2023-11-21T09:29:40;97990.16;;;9.15;100.00
64078;BME280;51039;49.696;10.808;2023-11-21T09:32:06;97993.59;;;9.16;100.00
64078;BME280;51039;49.696;10.808;2023-11-21T09:34:33;97986.09;;;9.26;100.00
64078;BME280;51039;49.696;10.808;2023-11-21T09:37:03;97991.78;;;9.03;100.00
64078;BME280;51039;49.696;10.808;2023-11-21T09:39:30;97999.50;;;8.91;100.00
64078;BME280;51039;49.696;10.808;2023-11-21T09:42:38;97991.41;;;9.26;100.00
64078;BME280;51039;49.696;10.808;2023-11-21T09:47:34;97998.28;;;9.00;100.00
64078;BME280;51039;49.696;10.808;2023-11-21T09:50:02;97994.00;;;8.99;100.00
64078;BME280;51039;49.696;10.808;2023-11-21T09:52:29;97990.56;;;9.06;100.00
64078;BME280;51039;49.696;10.808;2023-11-21T09:54:58;97999.31;;;9.19;100.00
64078;BME280;51039;49.696;10.808;2023-11-21T09:57:25;97999.72;;;9.23;100.00
64078;BME280;51039;49.696;10.808;2023-11-21T09:59:52;98001.38;;;9.24;100.00
64078;BME280;51039;49.696;10.808;2023-11-21T10:02:22;98004.78;;;9.31;100.00
64078;BME280;51039;49.696;10.808;2023-11-21T10:04:52;97999.09;;;9.41;100.00
64078;BME280;51039;49.696;10.808;2023-11-21T10:07:19;98005.22;;;9.35;100.00
64078;BME280;51039;49.696;10.808;2023-11-21T10:09:45;98000.53;;;9.23;100.00
64078;BME280;51039;49.696;10.808;2023-11-21T10:12:11;98002.16;;;9.11;100.00
64078;BME280;51039;49.696;10.808;2023-11-21T10:14:40;98002.75;;;9.00;100.00
64078;BME280;51039;49.696;10.808;2023-11-21T10:17:07;98000.91;;;9.00;100.00
64078;BME280;51039;49.696;10.808;2023-11-21T10:19:33;98012.50;;;8.99;100.00
64078;BME280;51039;49.696;10.808;2023-11-21T10:22:01;98016.38;;;9.10;100.00
64078;BME280;51039;49.696;10.808;2023-11-21T10:24:26;98015.78;;;9.28;100.00
64078;BME280;51039;49.696;10.808;2023-11-21T10:26:52;98018.63;;;9.40;100.00
64078;BME280;51039;49.696;10.808;2023-11-21T10:29:18;98018.84;;;9.38;100.00
64078;BME280;51039;49.696;10.808;2023-11-21T10:31:48;98022.72;;;9.49;100.00
64078;BME280;51039;49.696;10.808;2023-11-21T10:34:15;98022.69;;;9.69;100.00
64078;BME280;51039;49.696;10.808;2023-11-21T10:36:42;98026.75;;;9.72;100.00
64078;BME280;51039;49.696;10.808;2023-11-21T10:39:07;98024.31;;;9.70;100.00
64078;BME280;51039;49.696;10.808;2023-11-21T10:41:34;98026.38;;;9.68;100.00
64078;BME280;51039;49.696;10.808;2023-11-21T10:44:00;98024.91;;;9.86;100.00
64078;BME280;51039;49.696;10.808;2023-11-21T10:46:29;98026.72;;;9.92;100.00
64078;BME280;51039;49.696;10.808;2023-11-21T10:48:55;98029.63;;;9.70;100.00
64078;BME280;51039;49.696;10.808;2023-11-21T10:51:22;98021.25;;;9.73;100.00
64078;BME280;51039;49.696;10.808;2023-11-21T10:53:49;98020.84;;;9.70;100.00
64078;BME280;51039;49.696;10.808;2023-11-21T10:56:16;98018.63;;;9.67;100.00
64078;BME280;51039;49.696;10.808;2023-11-21T10:58:46;98021.69;;;9.57;100.00
64078;BME280;51039;49.696;10.808;2023-11-21T11:01:14;98030.63;;;9.49;100.00
64078;BME280;51039;49.696;10.808;2023-11-21T11:03:43;98022.91;;;9.48;100.00
64078;BME280;51039;49.696;10.808;2023-11-21T11:06:09;98024.75;;;9.47;100.00
64078;BME280;51039;49.696;10.808;2023-11-21T11:08:37;98024.34;;;9.57;100.00
64078;BME280;51039;49.696;10.808;2023-11-21T11:11:04;98032.25;;;9.70;100.00
64078;BME280;51039;49.696;10.808;2023-11-21T11:13:30;98033.03;;;9.77;100.00
64078;BME280;51039;49.696;10.808;2023-11-21T11:16:00;98027.59;;;9.59;100.00
64078;BME280;51039;49.696;10.808;2023-11-21T11:18:32;98031.06;;;9.53;100.00
64078;BME280;51039;49.696;10.808;2023-11-21T11:21:07;98024.34;;;9.57;100.00
64078;BME280;51039;49.696;10.808;2023-11-21T11:26:32;98026.94;;;9.83;100.00
64078;BME280;51039;49.696;10.808;2023-11-21T11:35:17;98022.06;;;9.80;100.00
64078;BME280;51039;49.696;10.808;2023-11-21T11:37:49;98021.00;;;9.95;100.00
64078;BME280;51039;49.696;10.808;2023-11-21T11:40:15;98023.28;;;9.85;100.00
64078;BME280;51039;49.696;10.808;2023-11-21T11:42:54;98028.78;;;9.76;100.00
64078;BME280;51039;49.696;10.808;2023-11-21T11:45:21;98028.28;;;10.19;100.00
64078;BME280;51039;49.696;10.808;2023-11-21T11:47:47;98023.59;;;10.21;100.00
64078;BME280;51039;49.696;10.808;2023-11-21T11:50:13;98030.09;;;10.26;100.00
64078;BME280;51039;49.696;10.808;2023-11-21T11:53:24;98033.56;;;10.33;100.00
64078;BME280;51039;49.696;10.808;2023-11-21T11:55:40;98034.16;;;10.35;100.00
64078;BME280;51039;49.696;10.808;2023-11-21T11:58:07;98040.66;;;10.39;100.00
64078;BME280;51039;49.696;10.808;2023-11-21T12:00:36;98048.34;;;10.60;100.00
64078;BME280;51039;49.696;10.808;2023-11-21T12:03:05;98042.50;;;10.25;100.00
64078;BME280;51039;49.696;10.808;2023-11-21T12:05:33;98040.94;;;10.04;100.00
64078;BME280;51039;49.696;10.808;2023-11-21T12:08:08;98052.38;;;9.91;100.00
64078;BME280;51039;49.696;10.808;2023-11-21T12:10:35;98050.50;;;9.98;100.00
64078;BME280;51039;49.696;10.808;2023-11-21T12:13:09;98052.75;;;10.01;100.00
64078;BME280;51039;49.696;10.808;2023-11-21T12:15:37;98061.34;;;9.77;100.00
64078;BME280;51039;49.696;10.808;2023-11-21T12:18:03;98060.72;;;9.61;100.00
64078;BME280;51039;49.696;10.808;2023-11-21T12:20:30;98053.00;;;9.47;100.00
64078;BME280;51039;49.696;10.808;2023-11-21T12:22:59;98062.97;;;9.58;100.00
64078;BME280;51039;49.696;10.808;2023-11-21T12:25:26;98059.09;;;9.54;100.00
64078;BME280;51039;49.696;10.808;2023-11-21T12:27:54;98057.25;;;9.34;100.00
64078;BME280;51039;49.696;10.808;2023-11-21T12:30:21;98060.53;;;9.43;100.00
64078;BME280;51039;49.696;10.808;2023-11-21T12:32:49;98068.25;;;9.44;100.00
64078;BME280;51039;49.696;10.808;2023-11-21T12:35:19;98067.63;;;9.42;100.00
64078;BME280;51039;49.696;10.808;2023-11-21T12:37:46;98069.47;;;9.62;100.00
64078;BME280;51039;49.696;10.808;2023-11-21T12:40:12;98067.84;;;10.01;100.00
64078;BME280;51039;49.696;10.808;2023-11-21T12:42:43;98062.47;;;10.21;100.00
64078;BME280;51039;49.696;10.808;2023-11-21T12:45:29;98065.16;;;10.14;100.00
64078;BME280;51039;49.696;10.808;2023-11-21T12:50:25;98067.84;;;10.01;100.00
64078;BME280;51039;49.696;10.808;2023-11-21T12:53:03;98070.63;;;10.19;100.00
64078;BME280;51039;49.696;10.808;2023-11-21T12:55:33;98066.69;;;10.55;100.00
64078;BME280;51039;49.696;10.808;2023-11-21T12:58:03;98062.28;;;10.88;96.79
64078;BME280;51039;49.696;10.808;2023-11-21T13:00:35;98069.44;;;11.19;95.45
64078;BME280;51039;49.696;10.808;2023-11-21T13:03:04;98065.06;;;11.56;93.49